Time,TemperatureF,DewpointF,PressureIn,WindDirection,WindDirectionDegrees,WindSpeedMPH,WindSpeedGustMPH,Humidity,HourlyPrecipIn,Conditions,Clouds,dailyrainin,SoftwareType,DateUTC
2013-06-21 00:12:00,61.1,60.0,30.24,SSE,159,0.0,-999.0,96,-99.99,,,0.00,weatherlink.com 1.10,2013-06-21 04:12:00,
2013-06-21 00:27:00,61.0,60.0,30.24,SSE,161,0.0,-999.0,97,-99.99,,,0.00,weatherlink.com 1.10,2013-06-21 04:27:00,
2013-06-21 00:42:00,61.0,60.0,30.24,SSE,161,1.0,-999.0,97,-99.99,,,0.00,weatherlink.com 1.10,2013-06-21 04:42:00,
2013-06-21 00:57:00,60.9,60.0,30.24,SSE,161,2.0,-999.0,97,-99.99,,,0.00,weatherlink.com 1.10,2013-06-21 04:57:00,
2013-06-21 01:12:00,60.7,60.0,30.23,SSE,162,2.0,-999.0,97,-99.99,,,0.00,weatherlink.com 1.10,2013-06-21 05:12:00,
2013-06-21 01:27:00,60.6,60.0,30.23,SSE,164,0.0,-999.0,97,-99.99,,,0.00,weatherlink.com 1.10,2013-06-21 05:27:00,
2013-06-21 01:42:00,60.5,60.0,30.23,SSE,165,0.0,-999.0,97,-99.99,,,0.00,weatherlink.com 1.10,2013-06-21 05:42:00,
2013-06-21 01:57:00,60.4,60.0,30.23,SSE,165,2.0,-999.0,97,-99.99,,,0.00,weatherlink.com 1.10,2013-06-21 05:57:00,
2013-06-21 02:12:00,60.0,59.0,30.22,SSE,165,0.0,-999.0,96,-99.99,,,0.00,weatherlink.com 1.10,2013-06-21 06:12:00,
2013-06-21 02:27:00,59.7,59.0,30.22,SSE,168,4.0,-999.0,97,-99.99,,,0.00,weatherlink.com 1.10,2013-06-21 06:27:00,
2013-06-21 02:42:00,59.8,59.0,30.22,South,171,0.0,-999.0,96,-99.99,,,0.00,weatherlink.com 1.10,2013-06-21 06:42:00,
2013-06-21 02:57:00,59.9,59.0,30.21,South,173,0.0,-999.0,96,-99.99,,,0.00,weatherlink.com 1.10,2013-06-21 06:57:00,
2013-06-21 03:12:00,59.8,59.0,30.22,South,172,0.0,-999.0,97,-99.99,,,0.00,weatherlink.com 1.10,2013-06-21 07:12:00,
2013-06-21 03:27:00,59.7,59.0,30.22,South,172,0.0,-999.0,97,-99.99,,,0.00,weatherlink.com 1.10,2013-06-21 07:27:00,
2013-06-21 03:42:00,59.5,59.0,30.22,South,172,1.0,-999.0,97,-99.99,,,0.00,weatherlink.com 1.10,2013-06-21 07:42:00,
2013-06-21 03:57:00,59.5,59.0,30.21,South,172,0.0,-999.0,97,-99.99,,,0.00,weatherlink.com 1.10,2013-06-21 07:57:00,
2013-06-21 04:12:00,59.3,59.0,30.21,South,172,0.0,-999.0,97,-99.99,,,0.00,weatherlink.com 1.10,2013-06-21 08:12:00,
2013-06-21 04:27:00,59.3,59.0,30.22,South,172,0.0,-999.0,97,-99.99,,,0.00,weatherlink.com 1.10,2013-06-21 08:27:00,
2013-06-21 04:42:00,59.4,59.0,30.22,South,172,0.0,-999.0,98,-99.99,,,0.00,weatherlink.com 1.10,2013-06-21 08:42:00,
2013-06-21 04:57:00,59.3,59.0,30.22,South,173,0.0,-999.0,98,-99.99,,,0.00,weatherlink.com 1.10,2013-06-21 08:57:00,
2013-06-21 05:12:00,59.0,59.0,30.22,South,173,0.0,-999.0,98,-99.99,,,0.00,weatherlink.com 1.10,2013-06-21 09:12:00,
2013-06-21 05:27:00,58.9,58.0,30.23,South,173,0.0,-999.0,98,-99.99,,,0.00,weatherlink.com 1.10,2013-06-21 09:27:00,
2013-06-21 05:42:00,59.0,59.0,30.23,South,173,0.0,-999.0,98,-99.99,,,0.00,weatherlink.com 1.10,2013-06-21 09:42:00,
2013-06-21 05:57:00,59.0,59.0,30.23,South,173,0.0,-999.0,98,-99.99,,,0.00,weatherlink.com 1.10,2013-06-21 09:57:00,
2013-06-21 06:12:00,59.0,59.0,30.23,South,173,0.0,-999.0,98,-99.99,,,0.00,weatherlink.com 1.10,2013-06-21 10:12:00,
2013-06-21 06:27:00,59.0,59.0,30.24,South,174,4.0,-999.0,98,-99.99,,,0.00,weatherlink.com 1.10,2013-06-21 10:27:00,
2013-06-21 06:42:00,59.0,59.0,30.24,South,174,0.0,-999.0,98,-99.99,,,0.00,weatherlink.com 1.10,2013-06-21 10:42:00,
2013-06-21 06:57:00,59.0,59.0,30.24,South,174,0.0,-999.0,98,-99.99,,,0.00,weatherlink.com 1.10,2013-06-21 10:57:00,
2013-06-21 07:12:00,59.1,59.0,30.24,South,174,0.0,-999.0,99,-99.99,,,0.00,weatherlink.com 1.10,2013-06-21 11:12:00,
2013-06-21 07:27:00,59.0,59.0,30.24,South,174,0.0,-999.0,98,-99.99,,,0.00,weatherlink.com 1.10,2013-06-21 11:27:00,
2013-06-21 07:42:00,58.9,59.0,30.25,South,174,0.0,-999.0,99,-99.99,,,0.00,weatherlink.com 1.10,2013-06-21 11:42:00,
2013-06-21 07:57:00,59.4,59.0,30.25,South,174,0.0,-999.0,99,-99.99,,,0.00,weatherlink.com 1.10,2013-06-21 11:57:00,
2013-06-21 08:12:00,59.9,59.0,30.25,South,175,0.0,-999.0,97,-99.99,,,0.00,weatherlink.com 1.10,2013-06-21 12:12:00,
2013-06-21 08:27:00,60.2,59.0,30.26,South,175,0.0,-999.0,96,-99.99,,,0.00,weatherlink.com 1.10,2013-06-21 12:27:00,
2013-06-21 08:42:00,60.4,59.0,30.26,South,175,0.0,-999.0,96,-99.99,,,0.00,weatherlink.com 1.10,2013-06-21 12:42:00,
2013-06-21 08:57:00,60.9,59.0,30.26,South,175,0.0,-999.0,94,-99.99,,,0.00,weatherlink.com 1.10,2013-06-21 12:57:00,
2013-06-21 09:12:00,61.3,60.0,30.26,South,175,0.0,-999.0,94,-99.99,,,0.00,weatherlink.com 1.10,2013-06-21 13:12:00,
2013-06-21 09:27:00,62.0,60.0,30.26,South,175,0.0,-999.0,92,-99.99,,,0.00,weatherlink.com 1.10,2013-06-21 13:27:00,
2013-06-21 09:42:00,63.6,60.0,30.27,South,175,0.0,-999.0,89,-99.99,,,0.00,weatherlink.com 1.10,2013-06-21 13:42:00,
2013-06-21 09:57:00,64.3,60.0,30.27,SE,139,0.0,-999.0,86,-99.99,,,0.00,weatherlink.com 1.10,2013-06-21 13:57:00,
2013-06-21 10:12:00,65.4,60.0,30.26,SE,139,4.0,-999.0,83,-99.99,,,0.00,weatherlink.com 1.10,2013-06-21 14:12:00,
2013-06-21 10:27:00,64.9,60.0,30.26,SE,140,0.0,-999.0,84,-99.99,,,0.00,weatherlink.com 1.10,2013-06-21 14:27:00,
2013-06-21 10:42:00,67.5,61.0,30.26,SSE,162,1.0,-999.0,80,-99.99,,,0.00,weatherlink.com 1.10,2013-06-21 14:42:00,
2013-06-21 10:57:00,66.6,60.0,30.26,SE,139,0.0,-999.0,79,-99.99,,,0.00,weatherlink.com 1.10,2013-06-21 14:57:00,
2013-06-21 11:13:00,66.9,60.0,30.26,SE,129,0.0,-999.0,78,-99.99,,,0.00,weatherlink.com 1.10,2013-06-21 15:13:00,
2013-06-21 11:27:00,66.7,61.0,30.26,ENE,65,2.0,-999.0,82,-99.99,,,0.00,weatherlink.com 1.10,2013-06-21 15:27:00,
2013-06-21 11:42:00,68.7,60.0,30.26,SW,235,3.0,-999.0,74,-99.99,,,0.00,weatherlink.com 1.10,2013-06-21 15:42:00,
2013-06-21 11:57:00,68.5,60.0,30.26,WSW,237,1.0,-999.0,75,-99.99,,,0.00,weatherlink.com 1.10,2013-06-21 15:57:00,
2013-06-21 12:12:00,68.6,59.0,30.26,South,169,6.0,-999.0,72,-99.99,,,0.00,weatherlink.com 1.10,2013-06-21 16:12:00,
2013-06-21 12:27:00,69.2,58.0,30.27,ESE,108,6.0,-999.0,68,-99.99,,,0.00,weatherlink.com 1.10,2013-06-21 16:27:00,
2013-06-21 12:42:00,70.1,60.0,30.27,WSW,243,1.0,-999.0,71,-99.99,,,0.00,weatherlink.com 1.10,2013-06-21 16:42:00,
2013-06-21 12:57:00,72.1,60.0,30.27,North,360,0.0,-999.0,65,-99.99,,,0.00,weatherlink.com 1.10,2013-06-21 16:57:00,
2013-06-21 13:12:00,73.0,59.0,30.27,ESE,107,1.0,-999.0,61,-99.99,,,0.00,weatherlink.com 1.10,2013-06-21 17:12:00,
2013-06-21 13:27:00,72.6,60.0,30.26,SW,229,6.0,-999.0,65,-99.99,,,0.00,weatherlink.com 1.10,2013-06-21 17:27:00,
2013-06-21 13:43:00,71.8,59.0,30.25,SE,128,0.0,-999.0,64,-99.99,,,0.00,weatherlink.com 1.10,2013-06-21 17:43:00,
2013-06-21 13:57:00,72.7,59.0,30.25,SE,145,4.0,-999.0,63,-99.99,,,0.00,weatherlink.com 1.10,2013-06-21 17:57:00,
2013-06-21 14:12:00,71.9,59.0,30.25,SSE,158,0.0,-999.0,65,-99.99,,,0.00,weatherlink.com 1.10,2013-06-21 18:12:00,
2013-06-21 14:27:00,73.2,60.0,30.25,SSE,153,1.0,-999.0,63,-99.99,,,0.00,weatherlink.com 1.10,2013-06-21 18:27:00,
2013-06-21 14:43:00,74.9,61.0,30.25,WSW,254,0.0,-999.0,62,-99.99,,,0.00,weatherlink.com 1.10,2013-06-21 18:43:00,
2013-06-21 14:58:00,74.0,61.0,30.24,South,183,1.0,-999.0,65,-99.99,,,0.00,weatherlink.com 1.10,2013-06-21 18:58:00,
2013-06-21 15:27:00,76.6,61.0,30.23,East,79,1.0,-999.0,59,-99.99,,,0.00,weatherlink.com 1.10,2013-06-21 19:27:00,
2013-06-21 15:42:00,75.2,61.0,30.23,SE,130,4.0,-999.0,61,-99.99,,,0.00,weatherlink.com 1.10,2013-06-21 19:42:00,
2013-06-21 15:57:00,74.0,61.0,30.23,ESE,119,1.0,-999.0,63,-99.99,,,0.00,weatherlink.com 1.10,2013-06-21 19:57:00,
2013-06-21 16:12:00,73.8,61.0,30.23,SE,142,4.0,-999.0,64,-99.99,,,0.00,weatherlink.com 1.10,2013-06-21 20:12:00,
2013-06-21 16:27:00,73.5,62.0,30.22,SE,132,1.0,-999.0,67,-99.99,,,0.00,weatherlink.com 1.10,2013-06-21 20:27:00,
2013-06-21 16:42:00,73.3,62.0,30.21,ESE,102,0.0,-999.0,68,-99.99,,,0.00,weatherlink.com 1.10,2013-06-21 20:42:00,
2013-06-21 16:57:00,72.5,61.0,30.21,West,260,2.0,-999.0,67,-99.99,,,0.00,weatherlink.com 1.10,2013-06-21 20:57:00,
2013-06-21 17:12:00,72.3,60.0,30.21,ESE,109,1.0,-999.0,66,-99.99,,,0.00,weatherlink.com 1.10,2013-06-21 21:12:00,
2013-06-21 17:27:00,72.4,61.0,30.20,SE,126,0.0,-999.0,68,-99.99,,,0.00,weatherlink.com 1.10,2013-06-21 21:27:00,
2013-06-21 17:43:00,74.2,63.0,30.20,WNW,300,0.0,-999.0,68,-99.99,,,0.00,weatherlink.com 1.10,2013-06-21 21:43:00,
2013-06-21 17:57:00,72.5,62.0,30.20,SE,130,5.0,-999.0,69,-99.99,,,0.00,weatherlink.com 1.10,2013-06-21 21:57:00,
2013-06-21 18:12:00,72.7,62.0,30.19,ESE,120,1.0,-999.0,68,-99.99,,,0.00,weatherlink.com 1.10,2013-06-21 22:12:00,
2013-06-21 18:27:00,70.8,61.0,30.19,South,179,1.0,-999.0,71,-99.99,,,0.00,weatherlink.com 1.10,2013-06-21 22:27:00,
2013-06-21 18:42:00,70.3,60.0,30.19,SE,130,0.0,-999.0,70,-99.99,,,0.00,weatherlink.com 1.10,2013-06-21 22:42:00,
2013-06-21 18:57:00,70.3,60.0,30.19,SSE,153,7.0,-999.0,70,-99.99,,,0.00,weatherlink.com 1.10,2013-06-21 22:57:00,
2013-06-21 19:12:00,69.4,60.0,30.19,SSE,159,0.0,-999.0,72,-99.99,,,0.00,weatherlink.com 1.10,2013-06-21 23:12:00,
2013-06-21 19:28:00,69.5,60.0,30.19,SSE,152,1.0,-999.0,72,-99.99,,,0.00,weatherlink.com 1.10,2013-06-21 23:28:00,
2013-06-21 19:42:00,68.7,60.0,30.19,SE,146,0.0,-999.0,73,-99.99,,,0.00,weatherlink.com 1.10,2013-06-21 23:42:00,
2013-06-21 19:57:00,67.7,60.0,30.19,East,95,0.0,-999.0,75,-99.99,,,0.00,weatherlink.com 1.10,2013-06-21 23:57:00,
2013-06-21 20:12:00,66.6,59.0,30.19,SSE,167,2.0,-999.0,77,-99.99,,,0.00,weatherlink.com 1.10,2013-06-22 00:12:00,
2013-06-21 20:28:00,66.1,59.0,30.19,SE,139,0.0,-999.0,78,-99.99,,,0.00,weatherlink.com 1.10,2013-06-22 00:28:00,
2013-06-21 20:43:00,65.3,59.0,30.20,South,188,0.0,-999.0,81,-99.99,,,0.00,weatherlink.com 1.10,2013-06-22 00:43:00,
2013-06-21 21:13:00,64.2,60.0,30.20,SSE,149,2.0,-999.0,86,-99.99,,,0.00,weatherlink.com 1.10,2013-06-22 01:13:00,
2013-06-21 21:28:00,64.0,60.0,30.21,SSE,149,0.0,-999.0,87,-99.99,,,0.00,weatherlink.com 1.10,2013-06-22 01:28:00,
2013-06-21 21:43:00,64.0,60.0,30.21,SSE,150,0.0,-999.0,88,-99.99,,,0.00,weatherlink.com 1.10,2013-06-22 01:43:00,
2013-06-21 21:58:00,63.6,60.0,30.21,SSE,151,0.0,-999.0,88,-99.99,,,0.00,weatherlink.com 1.10,2013-06-22 01:58:00,
2013-06-21 22:13:00,63.1,59.0,30.22,SSE,166,0.0,-999.0,87,-99.99,,,0.00,weatherlink.com 1.10,2013-06-22 02:13:00,
2013-06-21 22:28:00,62.7,59.0,30.22,ESE,111,5.0,-999.0,88,-99.99,,,0.00,weatherlink.com 1.10,2013-06-22 02:28:00,
2013-06-21 22:43:00,62.3,59.0,30.22,ESE,115,0.0,-999.0,89,-99.99,,,0.00,weatherlink.com 1.10,2013-06-22 02:43:00,
2013-06-21 22:58:00,61.8,59.0,30.22,ESE,115,0.0,-999.0,90,-99.99,,,0.00,weatherlink.com 1.10,2013-06-22 02:58:00,
2013-06-21 23:13:00,61.4,59.0,30.23,ESE,115,0.0,-999.0,91,-99.99,,,0.00,weatherlink.com 1.10,2013-06-22 03:13:00,
2013-06-21 23:28:00,60.9,58.0,30.23,ESE,115,0.0,-999.0,90,-99.99,,,0.00,weatherlink.com 1.10,2013-06-22 03:28:00,
2013-06-21 23:43:00,60.5,58.0,30.22,ESE,115,0.0,-999.0,91,-99.99,,,0.00,weatherlink.com 1.10,2013-06-22 03:43:00,
2013-06-21 23:58:00,60.3,58.0,30.23,ESE,115,0.0,-999.0,91,-99.99,,,0.00,weatherlink.com 1.10,2013-06-22 03:58:00,